Decoded Metar for LFRJ (LANDIVISIAU in FRANCE) (IATA:N/A) | Meteo·Mobile Aviation Weather
aviador You're here:

LFRJ Decoded Metar

LANDIVISIAU in FRANCE
Report Time2019-07-19 19:00:00
UTC Time2019-07-19 19:15:58
Flight Rules ifr IFR
Wind200° at 12 kt
W.Decomp.*RWY 26: 6.4 kt HW 10.2 kt LCW
Visibility8000 m
Phenomena:Light Rain
Clouds:Overcast 005 Hf
Ceiling500 ft
Temp18°C (ISA +4)
Dew Point18°C (100% RH)
AAT16.5°C
QNH1010 hPa
Density Alt1,194 ft
Elevation377 ft
Report Wrong Elevation
Raw Report
METAR LFRJ 191900Z AUTO 20012KT 8000 -RA OVC005/// ///CB 18/18 Q1010=

Extra information for LFRJ:More info

Metar Taf Metar & Taf Last 4 Metars F.Rules Stats Wind Profile Meteogram Temp Stats Airport Information Weather charts Add Link Nearby VenuesMetar ALERT Operation Metar Decoded Social comments